Celtic Voyager — EIQN — position and weather

sailwx.info

Track history (hours):
 
Tides and Currents Weather Stations Pressure Air Temp Water Temp Dewpoint Dewpoint Depression Visibility Wind Speed Wind Dir Waves Ship Positions

Oceanographic research ship Celtic Voyager (Ireland)

Detailed information on ship capabilities available from University of Delaware's Ocean Information Center.

Last reported at 2017-Dec-07 13:28 UTC. Time now 2018-Jan-22 21:47 UTC.
Position N 53°14' W 009°34'.
Warning: this ship's position is 46 days out of date.

Length 31 m; beam 8 m.

Type: Ship. MMSI: 250089000.

Date/timePositionNaut miles runAvg speedWind from/ knotsBaromVisibWave heightAir tempDewpointWater temp
2017-Dec-07 13:28N 53°14' W 009°34'  
2017-Nov-30 17:29N 51°34' W 010°20'4 7.9
2017-Nov-30 17:00N 51°32' W 010°14'4 8.2
2017-Nov-30 16:29N 51°30' W 010°08'4 8.2
2017-Nov-30 16:00N 51°28' W 010°02'4 8.4
2017-Nov-30 15:30N 51°26' W 009°56'4 8.4
2017-Nov-30 15:00N 51°25' W 009°50'4 8.3
2017-Nov-30 14:30N 51°25' W 009°44'4 8.7
2017-Nov-30 14:00N 51°24' W 009°37'4 8.4
2017-Nov-30 13:30N 51°24' W 009°30'4 8.5
2017-Nov-30 13:00N 51°25' W 009°23'4 8.5
2017-Nov-30 12:30N 51°26' W 009°17'4 8.4
2017-Nov-30 12:00N 51°27' W 009°10'4 8.6
2017-Nov-30 11:30N 51°28' W 009°03'4 8.6
2017-Nov-30 11:00N 51°30' W 008°57'4 8.6
2017-Nov-30 10:30N 51°31' W 008°50'4 8.7
2017-Nov-30 10:00N 51°32' W 008°44'4 8.9
2017-Nov-30 09:30N 51°34' W 008°37'5 9.3
2017-Nov-30 09:00N 51°36' W 008°30'5 9.7
2017-Nov-30 08:30N 51°39' W 008°24'5 9.9
2017-Nov-30 08:00N 51°42' W 008°18'5 9.7
2017-Nov-30 07:30N 51°47' W 008°16'4 8.2
2017-Nov-30 07:00N 51°51' W 008°17'4 7.3
2017-Nov-30 06:30N 51°53' W 008°22'3 6.6
2017-Nov-30 06:00N 51°54' W 008°27'0 0.3
2017-Nov-30 05:30N 51°54' W 008°27'0 0.0
2017-Nov-30 05:00N 51°54' W 008°27'0 0.0
2017-Nov-30 04:30N 51°54' W 008°27'0 0.0
2017-Nov-30 04:00N 51°54' W 008°27'0 0.0
2017-Nov-30 03:27N 51°54' W 008°27'0 0.0
2017-Nov-30 03:00N 51°54' W 008°27'0 0.0
2017-Nov-30 02:30N 51°54' W 008°27'0 0.0
2017-Nov-30 02:00N 51°54' W 008°27'0 0.0
2017-Nov-30 01:30N 51°54' W 008°27'0 0.0
2017-Nov-30 01:00N 51°54' W 008°27'0 0.0
2017-Nov-30 00:30N 51°54' W 008°27'0 0.0
2017-Nov-30 00:00N 51°54' W 008°27'0 0.0
2017-Nov-29 23:30N 51°54' W 008°27'0 0.0
2017-Nov-29 23:00N 51°54' W 008°27'0 0.0
2017-Nov-29 22:27N 51°54' W 008°27'0 0.0
2017-Nov-29 22:00N 51°54' W 008°27'0 0.0
2017-Nov-29 21:30N 51°54' W 008°27'0 0.0
2017-Nov-29 20:54N 51°54' W 008°27'0 0.0
2017-Nov-29 20:30N 51°54' W 008°27'0 0.0
2017-Nov-29 19:48N 51°54' W 008°27'0 0.0
2017-Nov-29 19:30N 51°54' W 008°27'0 0.0
2017-Nov-29 18:57N 51°54' W 008°27'0 0.0
2017-Nov-29 18:30N 51°54' W 008°27'0 0.0
2017-Nov-29 18:00N 51°54' W 008°27'0 0.0
2017-Nov-29 17:24N 51°54' W 008°27'0 0.0
2017-Nov-29 17:00N 51°54' W 008°27'0 0.0
2017-Nov-29 16:30N 51°54' W 008°27'2 3.3
2017-Nov-29 16:00N 51°54' W 008°25'4 7.2
2017-Nov-29 15:30N 51°52' W 008°20'2 4.2
2017-Nov-29 15:00N 51°51' W 008°17'2 3.1
2017-Nov-29 14:30N 51°49' W 008°16'1 2.0
2017-Nov-29 14:01N 51°50' W 008°16'1 1.4
2017-Nov-29 13:31N 51°50' W 008°16'0 0.1
2017-Nov-29 12:58N 51°50' W 008°16'0 0.2
2017-Nov-29 12:29N 51°50' W 008°16'0 0.4
2017-Nov-29 12:00N 51°50' W 008°17'0 0.4
2017-Nov-29 11:30N 51°50' W 008°16'1 2.4
2017-Nov-29 11:00N 51°51' W 008°17'1 1.3
2017-Nov-29 10:30N 51°51' W 008°18'1 2.3
2017-Nov-29 10:00N 51°51' W 008°20'4 7.5
2017-Nov-29 09:30N 51°54' W 008°23'2 4.7
2017-Nov-29 08:59N 51°54' W 008°27'0 0.0
2017-Nov-29 08:29N 51°54' W 008°27'0 0.0
2017-Nov-29 07:59N 51°54' W 008°27'0 0.0
2017-Nov-29 07:29N 51°54' W 008°27'0 0.0
2017-Nov-29 06:59N 51°54' W 008°27'0 0.0
2017-Nov-29 06:29N 51°54' W 008°27'0 0.0
2017-Nov-29 05:59N 51°54' W 008°27'0 0.0
2017-Nov-29 05:29N 51°54' W 008°27'0 0.0
2017-Nov-29 04:59N 51°54' W 008°27'0 0.0
2017-Nov-29 04:29N 51°54' W 008°27'0 0.0
2017-Nov-29 03:59N 51°54' W 008°27'0 0.0
2017-Nov-29 03:29N 51°54' W 008°27'0 0.0
2017-Nov-29 02:59N 51°54' W 008°27'0 0.0
2017-Nov-29 02:28N 51°54' W 008°27'0 0.0
2017-Nov-29 01:58N 51°54' W 008°27'0 0.0
2017-Nov-29 01:28N 51°54' W 008°27'0 0.0
2017-Nov-29 00:58N 51°54' W 008°27'0 0.0
2017-Nov-29 00:28N 51°54' W 008°27'0 0.0
2017-Nov-28 23:58N 51°54' W 008°27'0 0.0
2017-Nov-28 23:28N 51°54' W 008°27'0 0.0
2017-Nov-28 22:58N 51°54' W 008°27'0 0.0
2017-Nov-28 22:25N 51°54' W 008°27'0 0.0
2017-Nov-28 21:52N 51°54' W 008°27'0 0.0
2017-Nov-28 21:28N 51°54' W 008°27'0 0.0
2017-Nov-28 20:58N 51°54' W 008°27'0 0.0
2017-Nov-28 20:28N 51°54' W 008°27'0 0.0
2017-Nov-28 19:58N 51°54' W 008°27'0 0.0
2017-Nov-28 19:28N 51°54' W 008°27'0 0.0
2017-Nov-28 18:58N 51°54' W 008°27'0 0.0
2017-Nov-28 18:28N 51°54' W 008°27'0 0.0
2017-Nov-28 17:58N 51°54' W 008°27'0 0.0
2017-Nov-28 17:28N 51°54' W 008°27'0 0.0
2017-Nov-28 16:58N 51°54' W 008°27'1 2.6
2017-Nov-28 16:30N 51°54' W 008°25'4 7.8
2017-Nov-28 16:00N 51°52' W 008°20'3 3.2
2017-Nov-28 15:00N 51°50' W 008°16'1 2.2
2017-Nov-28 14:30N 51°49' W 008°16'1 1.0
2017-Nov-28 14:00N 51°49' W 008°16'0 0.1
2017-Nov-28 13:31N 51°49' W 008°16'0 0.9
2017-Nov-28 13:00N 51°49' W 008°17'1 1.1
2017-Nov-28 12:30N 51°50' W 008°16'0 0.5
2017-Nov-28 12:00N 51°50' W 008°16'1 1.1
2017-Nov-28 11:30N 51°50' W 008°16'1 2.3
2017-Nov-28 11:00N 51°51' W 008°17'0 0.8
2017-Nov-28 10:30N 51°51' W 008°18'2 3.0
2017-Nov-28 10:00N 51°52' W 008°20'4 7.6
2017-Nov-28 09:31N 51°54' W 008°25'2 0.1
2017-Nov-27 16:38N 51°54' W 008°27'0 1.2
2017-Nov-27 16:30N 51°54' W 008°27'3 6.7
2017-Nov-27 16:00N 51°53' W 008°22'3 6.7
2017-Nov-27 15:30N 51°51' W 008°19'2 3.7
2017-Nov-27 15:00N 51°50' W 008°16'1 2.0
2017-Nov-27 14:30N 51°50' W 008°17'0 0.5
2017-Nov-27 14:00N 51°49' W 008°16'1 1.1
2017-Nov-27 13:30N 51°50' W 008°16'  
Track history (hours):
 
Tides and Currents Weather Stations Pressure Air Temp Water Temp Dewpoint Dewpoint Depression Visibility Wind Speed Wind Dir Waves Ship Positions

Oceanographic research ship Celtic Voyager (Ireland)

Detailed information on ship capabilities available from University of Delaware's Ocean Information Center.

Last reported at 2017-Dec-07 13:28 UTC. Time now 2018-Jan-22 21:47 UTC.
Position N 53°14' W 009°34'.
Warning: this ship's position is 46 days out of date.

Length 31 m; beam 8 m.

Type: Ship. MMSI: 250089000.

Date/timePositionNaut miles runAvg speedWind from/ knotsBaromVisibWave heightAir tempDewpointWater temp
2017-Dec-07 13:28N 53°14' W 009°34'  
2017-Nov-30 17:29N 51°34' W 010°20'4 7.9
2017-Nov-30 17:00N 51°32' W 010°14'4 8.2
2017-Nov-30 16:29N 51°30' W 010°08'4 8.2
2017-Nov-30 16:00N 51°28' W 010°02'4 8.4
2017-Nov-30 15:30N 51°26' W 009°56'4 8.4
2017-Nov-30 15:00N 51°25' W 009°50'4 8.3
2017-Nov-30 14:30N 51°25' W 009°44'4 8.7
2017-Nov-30 14:00N 51°24' W 009°37'4 8.4
2017-Nov-30 13:30N 51°24' W 009°30'4 8.5
2017-Nov-30 13:00N 51°25' W 009°23'4 8.5
2017-Nov-30 12:30N 51°26' W 009°17'4 8.4
2017-Nov-30 12:00N 51°27' W 009°10'4 8.6
2017-Nov-30 11:30N 51°28' W 009°03'4 8.6
2017-Nov-30 11:00N 51°30' W 008°57'4 8.6
2017-Nov-30 10:30N 51°31' W 008°50'4 8.7
2017-Nov-30 10:00N 51°32' W 008°44'4 8.9
2017-Nov-30 09:30N 51°34' W 008°37'5 9.3
2017-Nov-30 09:00N 51°36' W 008°30'5 9.7
2017-Nov-30 08:30N 51°39' W 008°24'5 9.9
2017-Nov-30 08:00N 51°42' W 008°18'5 9.7
2017-Nov-30 07:30N 51°47' W 008°16'4 8.2
2017-Nov-30 07:00N 51°51' W 008°17'4 7.3
2017-Nov-30 06:30N 51°53' W 008°22'3 6.6
2017-Nov-30 06:00N 51°54' W 008°27'0 0.3
2017-Nov-30 05:30N 51°54' W 008°27'0 0.0
2017-Nov-30 05:00N 51°54' W 008°27'0 0.0
2017-Nov-30 04:30N 51°54' W 008°27'0 0.0
2017-Nov-30 04:00N 51°54' W 008°27'0 0.0
2017-Nov-30 03:27N 51°54' W 008°27'0 0.0
2017-Nov-30 03:00N 51°54' W 008°27'0 0.0
2017-Nov-30 02:30N 51°54' W 008°27'0 0.0
2017-Nov-30 02:00N 51°54' W 008°27'0 0.0
2017-Nov-30 01:30N 51°54' W 008°27'0 0.0
2017-Nov-30 01:00N 51°54' W 008°27'0 0.0
2017-Nov-30 00:30N 51°54' W 008°27'0 0.0
2017-Nov-30 00:00N 51°54' W 008°27'0 0.0
2017-Nov-29 23:30N 51°54' W 008°27'0 0.0
2017-Nov-29 23:00N 51°54' W 008°27'0 0.0
2017-Nov-29 22:27N 51°54' W 008°27'0 0.0
2017-Nov-29 22:00N 51°54' W 008°27'0 0.0
2017-Nov-29 21:30N 51°54' W 008°27'0 0.0
2017-Nov-29 20:54N 51°54' W 008°27'0 0.0
2017-Nov-29 20:30N 51°54' W 008°27'0 0.0
2017-Nov-29 19:48N 51°54' W 008°27'0 0.0
2017-Nov-29 19:30N 51°54' W 008°27'0 0.0
2017-Nov-29 18:57N 51°54' W 008°27'0 0.0
2017-Nov-29 18:30N 51°54' W 008°27'0 0.0
2017-Nov-29 18:00N 51°54' W 008°27'0 0.0
2017-Nov-29 17:24N 51°54' W 008°27'0 0.0
2017-Nov-29 17:00N 51°54' W 008°27'0 0.0
2017-Nov-29 16:30N 51°54' W 008°27'2 3.3
2017-Nov-29 16:00N 51°54' W 008°25'4 7.2
2017-Nov-29 15:30N 51°52' W 008°20'2 4.2
2017-Nov-29 15:00N 51°51' W 008°17'2 3.1
2017-Nov-29 14:30N 51°49' W 008°16'1 2.0
2017-Nov-29 14:01N 51°50' W 008°16'1 1.4
2017-Nov-29 13:31N 51°50' W 008°16'0 0.1
2017-Nov-29 12:58N 51°50' W 008°16'0 0.2
2017-Nov-29 12:29N 51°50' W 008°16'0 0.4
2017-Nov-29 12:00N 51°50' W 008°17'0 0.4
2017-Nov-29 11:30N 51°50' W 008°16'1 2.4
2017-Nov-29 11:00N 51°51' W 008°17'1 1.3
2017-Nov-29 10:30N 51°51' W 008°18'1 2.3
2017-Nov-29 10:00N 51°51' W 008°20'4 7.5
2017-Nov-29 09:30N 51°54' W 008°23'2 4.7
2017-Nov-29 08:59N 51°54' W 008°27'0 0.0
2017-Nov-29 08:29N 51°54' W 008°27'0 0.0
2017-Nov-29 07:59N 51°54' W 008°27'0 0.0
2017-Nov-29 07:29N 51°54' W 008°27'0 0.0
2017-Nov-29 06:59N 51°54' W 008°27'0 0.0
2017-Nov-29 06:29N 51°54' W 008°27'0 0.0
2017-Nov-29 05:59N 51°54' W 008°27'0 0.0
2017-Nov-29 05:29N 51°54' W 008°27'0 0.0
2017-Nov-29 04:59N 51°54' W 008°27'0 0.0
2017-Nov-29 04:29N 51°54' W 008°27'0 0.0
2017-Nov-29 03:59N 51°54' W 008°27'0 0.0
2017-Nov-29 03:29N 51°54' W 008°27'0 0.0
2017-Nov-29 02:59N 51°54' W 008°27'0 0.0
2017-Nov-29 02:28N 51°54' W 008°27'0 0.0
2017-Nov-29 01:58N 51°54' W 008°27'0 0.0
2017-Nov-29 01:28N 51°54' W 008°27'0 0.0
2017-Nov-29 00:58N 51°54' W 008°27'0 0.0
2017-Nov-29 00:28N 51°54' W 008°27'0 0.0
2017-Nov-28 23:58N 51°54' W 008°27'0 0.0
2017-Nov-28 23:28N 51°54' W 008°27'0 0.0
2017-Nov-28 22:58N 51°54' W 008°27'0 0.0
2017-Nov-28 22:25N 51°54' W 008°27'0 0.0
2017-Nov-28 21:52N 51°54' W 008°27'0 0.0
2017-Nov-28 21:28N 51°54' W 008°27'0 0.0
2017-Nov-28 20:58N 51°54' W 008°27'0 0.0
2017-Nov-28 20:28N 51°54' W 008°27'0 0.0
2017-Nov-28 19:58N 51°54' W 008°27'0 0.0
2017-Nov-28 19:28N 51°54' W 008°27'0 0.0
2017-Nov-28 18:58N 51°54' W 008°27'0 0.0
2017-Nov-28 18:28N 51°54' W 008°27'0 0.0
2017-Nov-28 17:58N 51°54' W 008°27'0 0.0
2017-Nov-28 17:28N 51°54' W 008°27'0 0.0
2017-Nov-28 16:58N 51°54' W 008°27'1 2.6
2017-Nov-28 16:30N 51°54' W 008°25'4 7.8
2017-Nov-28 16:00N 51°52' W 008°20'3 3.2
2017-Nov-28 15:00N 51°50' W 008°16'1 2.2
2017-Nov-28 14:30N 51°49' W 008°16'1 1.0
2017-Nov-28 14:00N 51°49' W 008°16'0 0.1
2017-Nov-28 13:31N 51°49' W 008°16'0 0.9
2017-Nov-28 13:00N 51°49' W 008°17'1 1.1
2017-Nov-28 12:30N 51°50' W 008°16'0 0.5
2017-Nov-28 12:00N 51°50' W 008°16'1 1.1
2017-Nov-28 11:30N 51°50' W 008°16'1 2.3
2017-Nov-28 11:00N 51°51' W 008°17'0 0.8
2017-Nov-28 10:30N 51°51' W 008°18'2 3.0
2017-Nov-28 10:00N 51°52' W 008°20'4 7.6
2017-Nov-28 09:31N 51°54' W 008°25'2 0.1
2017-Nov-27 16:38N 51°54' W 008°27'0 1.2
2017-Nov-27 16:30N 51°54' W 008°27'3 6.7
2017-Nov-27 16:00N 51°53' W 008°22'3 6.7
2017-Nov-27 15:30N 51°51' W 008°19'2 3.7
2017-Nov-27 15:00N 51°50' W 008°16'1 2.0
2017-Nov-27 14:30N 51°50' W 008°17'0 0.5
2017-Nov-27 14:00N 51°49' W 008°16'1 1.1
2017-Nov-27 13:30N 51°50' W 008°16'  

Dump ship's entire track history